createdAt,value
2022-11-02T17:32:45.154Z,7.85
2022-11-02T17:35:51.513Z,8.18
2022-11-02T17:38:55.300Z,8.34
2022-11-02T17:42:31.638Z,8.37
2022-11-02T17:45:37.376Z,8.35
2022-11-02T17:48:42.437Z,8.37
2022-11-02T17:51:46.107Z,8.42
2022-11-02T17:54:49.701Z,8.42
2022-11-02T17:57:54.172Z,8.39
2022-11-02T18:00:57.949Z,8.35
2022-11-02T18:04:03.110Z,8.31
2022-11-02T18:07:06.748Z,8.25
2022-11-02T18:10:10.933Z,8.27
2022-11-02T18:13:16.526Z,8.21
2022-11-02T18:16:20.116Z,8.27
2022-11-02T18:19:25.082Z,8.27
2022-11-02T18:22:28.655Z,8.26
2022-11-02T18:25:32.493Z,8.29
2022-11-02T18:28:36.361Z,8.28
2022-11-02T18:31:43.010Z,8.26
2022-11-02T18:34:48.027Z,8.18
2022-11-02T18:37:52.222Z,8.22
2022-11-02T18:40:55.816Z,8.17
2022-11-02T18:44:05.551Z,8.14
2022-11-02T18:47:11.316Z,8.11
2022-11-02T18:50:16.347Z,8.09
2022-11-02T18:53:19.939Z,8.14
2022-11-02T18:56:23.605Z,8.03
2022-11-02T18:59:27.184Z,8.07
2022-11-02T19:02:30.998Z,7.96
2022-11-02T19:05:53.421Z,7.92
2022-11-02T19:09:14.325Z,7.86
2022-11-02T19:12:20.684Z,7.75
2022-11-02T19:15:24.243Z,7.65
2022-11-02T19:18:27.811Z,7.67
2022-11-02T19:21:32.703Z,7.38
2022-11-02T19:24:36.263Z,7.11
2022-11-02T19:27:39.848Z,6.71
2022-11-02T19:30:43.476Z,6.53
2022-11-02T19:33:47.051Z,6.55
2022-11-02T19:36:51.990Z,6.60
2022-11-02T19:39:55.601Z,6.54
2022-11-02T19:42:59.129Z,6.40
2022-11-02T19:46:03.317Z,6.22
2022-11-02T19:49:06.862Z,6.19
2022-11-02T19:52:11.751Z,6.04
2022-11-02T19:55:15.396Z,5.93
2022-11-02T19:58:18.964Z,5.78
2022-11-02T20:01:23.919Z,5.95
2022-11-02T20:04:27.731Z,5.83
2022-11-02T20:07:32.678Z,5.81
2022-11-02T20:10:36.330Z,5.83
2022-11-02T20:13:41.655Z,5.85
2022-11-02T20:16:58.317Z,5.73
2022-11-02T20:20:02.702Z,5.66
2022-11-02T20:23:07.675Z,5.68
2022-11-02T20:26:13.995Z,5.74
2022-11-02T20:29:18.513Z,5.68
2022-11-02T20:32:23.604Z,5.52
2022-11-02T20:35:27.356Z,5.24
2022-11-02T20:38:32.827Z,5.17
2022-11-02T20:41:36.352Z,5.17
2022-11-02T20:44:40.026Z,5.25
2022-11-02T20:47:43.577Z,5.37
2022-11-02T20:50:47.246Z,5.12
2022-11-02T20:53:52.831Z,4.82
2022-11-02T20:56:56.911Z,4.68
2022-11-02T21:00:00.529Z,4.73
2022-11-02T21:03:04.307Z,4.85
2022-11-02T21:06:08.511Z,4.74
2022-11-02T21:09:13.413Z,4.61
2022-11-02T21:12:34.663Z,4.55
2022-11-02T21:15:38.211Z,4.43
2022-11-02T21:18:42.252Z,4.43
2022-11-02T21:21:46.033Z,4.48
2022-11-02T21:24:50.934Z,4.70
2022-11-02T21:27:55.540Z,4.88
2022-11-02T21:31:03.383Z,4.87
2022-11-02T21:34:07.143Z,4.50
2022-11-02T21:37:10.752Z,4.44
2022-11-02T21:40:16.090Z,4.46
2022-11-02T21:43:20.329Z,4.67
2022-11-02T21:46:25.757Z,4.75
2022-11-02T22:57:17.670Z,3.71
2022-11-02T23:00:22.424Z,3.97
2022-11-02T23:03:26.706Z,4.29
2022-11-02T23:06:30.910Z,4.29
2022-11-02T23:09:34.404Z,4.29
2022-11-02T23:12:38.289Z,4.29
